sensor_id;sensor_type;location;lat;lon;timestamp;temperature;humidity
15615;DHT22;7907;51.368;6.730;2023-03-24T00:02:24;13.20;99.90
15615;DHT22;7907;51.368;6.730;2023-03-24T00:04:56;13.30;99.90
15615;DHT22;7907;51.368;6.730;2023-03-24T00:07:24;13.20;99.90
15615;DHT22;7907;51.368;6.730;2023-03-24T00:09:59;13.20;99.90
15615;DHT22;7907;51.368;6.730;2023-03-24T00:12:37;13.30;99.90
15615;DHT22;7907;51.368;6.730;2023-03-24T00:15:27;13.30;99.90
15615;DHT22;7907;51.368;6.730;2023-03-24T00:18:03;13.20;99.90
15615;DHT22;7907;51.368;6.730;2023-03-24T00:20:44;13.30;99.90
15615;DHT22;7907;51.368;6.730;2023-03-24T00:23:21;13.30;99.90
15615;DHT22;7907;51.368;6.730;2023-03-24T00:25:58;13.30;99.90
15615;DHT22;7907;51.368;6.730;2023-03-24T00:28:35;13.20;99.90
15615;DHT22;7907;51.368;6.730;2023-03-24T00:31:11;13.30;99.90
15615;DHT22;7907;51.368;6.730;2023-03-24T00:33:42;13.30;99.90
15615;DHT22;7907;51.368;6.730;2023-03-24T00:36:17;13.20;99.90
15615;DHT22;7907;51.368;6.730;2023-03-24T00:38:48;13.20;99.90
15615;DHT22;7907;51.368;6.730;2023-03-24T00:41:18;13.30;99.90
15615;DHT22;7907;51.368;6.730;2023-03-24T00:43:49;13.30;99.90
15615;DHT22;7907;51.368;6.730;2023-03-24T00:46:19;13.20;99.90
15615;DHT22;7907;51.368;6.730;2023-03-24T00:49:06;13.20;99.90
15615;DHT22;7907;51.368;6.730;2023-03-24T00:51:46;13.20;99.90
15615;DHT22;7907;51.368;6.730;2023-03-24T00:54:19;13.20;99.90
15615;DHT22;7907;51.368;6.730;2023-03-24T00:56:57;13.20;99.90
15615;DHT22;7907;51.368;6.730;2023-03-24T00:59:42;13.30;99.90
15615;DHT22;7907;51.368;6.730;2023-03-24T01:02:32;13.20;99.90
15615;DHT22;7907;51.368;6.730;2023-03-24T01:05:08;13.30;99.90
15615;DHT22;7907;51.368;6.730;2023-03-24T01:07:45;13.20;99.90
15615;DHT22;7907;51.368;6.730;2023-03-24T01:10:19;13.20;99.90
15615;DHT22;7907;51.368;6.730;2023-03-24T01:13:00;13.20;99.90
15615;DHT22;7907;51.368;6.730;2023-03-24T01:15:46;13.20;99.90
15615;DHT22;7907;51.368;6.730;2023-03-24T01:18:45;13.30;99.90
15615;DHT22;7907;51.368;6.730;2023-03-24T01:21:15;13.30;99.90
15615;DHT22;7907;51.368;6.730;2023-03-24T01:23:48;13.20;99.90
15615;DHT22;7907;51.368;6.730;2023-03-24T01:26:22;13.20;99.90
15615;DHT22;7907;51.368;6.730;2023-03-24T01:28:50;13.20;99.90
15615;DHT22;7907;51.368;6.730;2023-03-24T01:31:23;13.20;99.90
15615;DHT22;7907;51.368;6.730;2023-03-24T01:34:19;13.20;99.90
15615;DHT22;7907;51.368;6.730;2023-03-24T01:36:48;13.20;99.90
15615;DHT22;7907;51.368;6.730;2023-03-24T01:39:17;13.20;99.90
15615;DHT22;7907;51.368;6.730;2023-03-24T01:41:46;13.20;99.90
15615;DHT22;7907;51.368;6.730;2023-03-24T01:44:30;13.20;99.90
15615;DHT22;7907;51.368;6.730;2023-03-24T01:47:05;13.20;99.90
15615;DHT22;7907;51.368;6.730;2023-03-24T01:49:47;13.20;99.90
15615;DHT22;7907;51.368;6.730;2023-03-24T01:52:23;13.20;99.90
15615;DHT22;7907;51.368;6.730;2023-03-24T01:54:53;13.20;99.90
15615;DHT22;7907;51.368;6.730;2023-03-24T01:57:28;13.20;99.90
15615;DHT22;7907;51.368;6.730;2023-03-24T02:00:02;13.20;99.90
15615;DHT22;7907;51.368;6.730;2023-03-24T02:02:33;13.20;99.90
15615;DHT22;7907;51.368;6.730;2023-03-24T02:05:27;13.30;99.90
15615;DHT22;7907;51.368;6.730;2023-03-24T02:08:09;13.30;99.90
15615;DHT22;7907;51.368;6.730;2023-03-24T02:10:47;13.20;99.90
15615;DHT22;7907;51.368;6.730;2023-03-24T02:13:23;13.30;99.90
15615;DHT22;7907;51.368;6.730;2023-03-24T02:22:50;13.30;99.90
15615;DHT22;7907;51.368;6.730;2023-03-24T02:28:45;13.20;99.90
15615;DHT22;7907;51.368;6.730;2023-03-24T02:31:41;13.30;99.90
15615;DHT22;7907;51.368;6.730;2023-03-24T02:34:35;13.30;99.90
15615;DHT22;7907;51.368;6.730;2023-03-24T02:40:32;13.30;99.90
15615;DHT22;7907;51.368;6.730;2023-03-24T02:43:18;13.40;99.90
15615;DHT22;7907;51.368;6.730;2023-03-24T02:48:45;13.40;99.90
15615;DHT22;7907;51.368;6.730;2023-03-24T02:51:25;13.40;99.90
15615;DHT22;7907;51.368;6.730;2023-03-24T02:54:00;13.40;99.90
15615;DHT22;7907;51.368;6.730;2023-03-24T02:56:38;13.50;99.90
15615;DHT22;7907;51.368;6.730;2023-03-24T02:59:16;13.40;99.90
15615;DHT22;7907;51.368;6.730;2023-03-24T03:01:47;13.50;99.90
15615;DHT22;7907;51.368;6.730;2023-03-24T03:04:33;13.50;99.90
15615;DHT22;7907;51.368;6.730;2023-03-24T03:07:13;13.50;99.90
15615;DHT22;7907;51.368;6.730;2023-03-24T03:09:54;13.50;99.90
15615;DHT22;7907;51.368;6.730;2023-03-24T03:12:32;13.60;99.90
15615;DHT22;7907;51.368;6.730;2023-03-24T03:15:05;13.60;99.90
15615;DHT22;7907;51.368;6.730;2023-03-24T03:17:37;13.60;99.90
15615;DHT22;7907;51.368;6.730;2023-03-24T03:20:12;13.70;99.90
15615;DHT22;7907;51.368;6.730;2023-03-24T03:22:52;13.70;99.90
15615;DHT22;7907;51.368;6.730;2023-03-24T03:25:38;13.80;99.90
15615;DHT22;7907;51.368;6.730;2023-03-24T03:28:46;13.90;99.90
15615;DHT22;7907;51.368;6.730;2023-03-24T03:31:20;13.90;99.90
15615;DHT22;7907;51.368;6.730;2023-03-24T03:34:01;14.00;99.90
15615;DHT22;7907;51.368;6.730;2023-03-24T03:36:38;14.10;99.90
15615;DHT22;7907;51.368;6.730;2023-03-24T03:39:15;14.10;99.90
15615;DHT22;7907;51.368;6.730;2023-03-24T03:41:45;14.20;99.90
15615;DHT22;7907;51.368;6.730;2023-03-24T03:44:17;14.20;99.90
15615;DHT22;7907;51.368;6.730;2023-03-24T03:46:51;14.20;99.90
15615;DHT22;7907;51.368;6.730;2023-03-24T03:49:22;14.30;99.90
15615;DHT22;7907;51.368;6.730;2023-03-24T03:51:51;14.30;99.90
15615;DHT22;7907;51.368;6.730;2023-03-24T03:54:21;14.30;99.90
15615;DHT22;7907;51.368;6.730;2023-03-24T03:56:52;14.20;99.90
15615;DHT22;7907;51.368;6.730;2023-03-24T03:59:29;14.20;99.90
15615;DHT22;7907;51.368;6.730;2023-03-24T04:02:22;14.00;99.90
15615;DHT22;7907;51.368;6.730;2023-03-24T04:05:22;14.00;99.90
15615;DHT22;7907;51.368;6.730;2023-03-24T04:08:20;14.00;99.90
15615;DHT22;7907;51.368;6.730;2023-03-24T04:14:30;13.90;99.90
15615;DHT22;7907;51.368;6.730;2023-03-24T04:17:25;13.70;99.90
15615;DHT22;7907;51.368;6.730;2023-03-24T04:23:31;13.40;99.90
15615;DHT22;7907;51.368;6.730;2023-03-24T04:26:16;13.30;99.90
15615;DHT22;7907;51.368;6.730;2023-03-24T04:29:03;13.30;99.90
15615;DHT22;7907;51.368;6.730;2023-03-24T04:31:39;13.30;99.90
15615;DHT22;7907;51.368;6.730;2023-03-24T04:34:27;13.30;99.90
15615;DHT22;7907;51.368;6.730;2023-03-24T04:37:07;13.20;99.90
15615;DHT22;7907;51.368;6.730;2023-03-24T04:40:21;13.10;99.90
15615;DHT22;7907;51.368;6.730;2023-03-24T04:43:07;13.10;99.90
15615;DHT22;7907;51.368;6.730;2023-03-24T04:45:38;13.10;99.90
15615;DHT22;7907;51.368;6.730;2023-03-24T04:48:18;13.00;99.90
15615;DHT22;7907;51.368;6.730;2023-03-24T04:50:56;13.00;99.90
15615;DHT22;7907;51.368;6.730;2023-03-24T04:53:24;13.00;99.90
15615;DHT22;7907;51.368;6.730;2023-03-24T04:56:06;13.10;99.90
15615;DHT22;7907;51.368;6.730;2023-03-24T04:58:40;13.10;99.90
15615;DHT22;7907;51.368;6.730;2023-03-24T05:01:10;13.00;99.90
15615;DHT22;7907;51.368;6.730;2023-03-24T05:03:38;13.00;99.90
15615;DHT22;7907;51.368;6.730;2023-03-24T05:06:09;13.10;99.90
15615;DHT22;7907;51.368;6.730;2023-03-24T05:08:37;13.00;99.90
15615;DHT22;7907;51.368;6.730;2023-03-24T05:11:06;13.00;99.90
15615;DHT22;7907;51.368;6.730;2023-03-24T05:13:33;13.00;99.90
15615;DHT22;7907;51.368;6.730;2023-03-24T05:16:01;13.00;99.90
15615;DHT22;7907;51.368;6.730;2023-03-24T05:18:30;13.00;99.90
15615;DHT22;7907;51.368;6.730;2023-03-24T05:21:00;12.90;99.90
15615;DHT22;7907;51.368;6.730;2023-03-24T05:23:30;12.90;99.90
15615;DHT22;7907;51.368;6.730;2023-03-24T05:25:58;12.80;99.90
15615;DHT22;7907;51.368;6.730;2023-03-24T05:28:29;12.70;99.90
15615;DHT22;7907;51.368;6.730;2023-03-24T05:30:57;12.70;99.90
15615;DHT22;7907;51.368;6.730;2023-03-24T05:33:25;12.60;99.90
15615;DHT22;7907;51.368;6.730;2023-03-24T05:35:53;12.60;99.90
15615;DHT22;7907;51.368;6.730;2023-03-24T05:38:20;12.50;99.90
15615;DHT22;7907;51.368;6.730;2023-03-24T05:40:56;12.50;99.90
15615;DHT22;7907;51.368;6.730;2023-03-24T05:43:24;12.50;99.90
15615;DHT22;7907;51.368;6.730;2023-03-24T05:45:53;12.40;99.90
15615;DHT22;7907;51.368;6.730;2023-03-24T05:48:22;12.30;99.90
15615;DHT22;7907;51.368;6.730;2023-03-24T05:50:51;12.30;99.90
15615;DHT22;7907;51.368;6.730;2023-03-24T05:53:19;12.30;99.90
15615;DHT22;7907;51.368;6.730;2023-03-24T05:55:48;12.20;99.90
15615;DHT22;7907;51.368;6.730;2023-03-24T05:58:26;12.10;99.90
15615;DHT22;7907;51.368;6.730;2023-03-24T06:01:05;12.10;99.90
15615;DHT22;7907;51.368;6.730;2023-03-24T06:03:35;12.10;99.90
15615;DHT22;7907;51.368;6.730;2023-03-24T06:06:04;12.10;99.90
15615;DHT22;7907;51.368;6.730;2023-03-24T06:08:34;12.10;99.90
15615;DHT22;7907;51.368;6.730;2023-03-24T06:11:03;12.10;99.90
15615;DHT22;7907;51.368;6.730;2023-03-24T06:13:33;12.00;99.90
15615;DHT22;7907;51.368;6.730;2023-03-24T06:16:07;11.90;99.90
15615;DHT22;7907;51.368;6.730;2023-03-24T06:18:37;11.90;99.90
15615;DHT22;7907;51.368;6.730;2023-03-24T06:21:07;11.80;99.90
15615;DHT22;7907;51.368;6.730;2023-03-24T06:23:35;11.70;99.90
15615;DHT22;7907;51.368;6.730;2023-03-24T06:26:07;11.70;99.90
15615;DHT22;7907;51.368;6.730;2023-03-24T06:28:42;11.60;99.90
15615;DHT22;7907;51.368;6.730;2023-03-24T06:31:11;11.60;99.90
15615;DHT22;7907;51.368;6.730;2023-03-24T06:33:44;11.50;99.90
15615;DHT22;7907;51.368;6.730;2023-03-24T06:36:17;11.50;99.90
15615;DHT22;7907;51.368;6.730;2023-03-24T06:38:53;11.50;99.90
15615;DHT22;7907;51.368;6.730;2023-03-24T06:41:22;11.50;99.90
15615;DHT22;7907;51.368;6.730;2023-03-24T06:43:51;11.50;99.90
15615;DHT22;7907;51.368;6.730;2023-03-24T06:46:25;11.50;99.90
15615;DHT22;7907;51.368;6.730;2023-03-24T06:48:53;11.40;99.90
15615;DHT22;7907;51.368;6.730;2023-03-24T06:51:21;11.40;99.90
15615;DHT22;7907;51.368;6.730;2023-03-24T06:54:02;11.40;99.90
15615;DHT22;7907;51.368;6.730;2023-03-24T06:56:34;11.50;99.90
15615;DHT22;7907;51.368;6.730;2023-03-24T06:59:17;11.50;99.90
15615;DHT22;7907;51.368;6.730;2023-03-24T07:01:48;11.40;99.90
15615;DHT22;7907;51.368;6.730;2023-03-24T07:04:20;11.50;99.90
15615;DHT22;7907;51.368;6.730;2023-03-24T07:06:51;11.50;99.90
15615;DHT22;7907;51.368;6.730;2023-03-24T07:09:31;11.50;99.90
15615;DHT22;7907;51.368;6.730;2023-03-24T07:12:00;11.50;99.90
15615;DHT22;7907;51.368;6.730;2023-03-24T07:14:32;11.60;99.90
15615;DHT22;7907;51.368;6.730;2023-03-24T07:17:00;11.60;99.90
15615;DHT22;7907;51.368;6.730;2023-03-24T07:19:29;11.60;99.90
15615;DHT22;7907;51.368;6.730;2023-03-24T07:21:59;11.70;99.90
15615;DHT22;7907;51.368;6.730;2023-03-24T07:24:27;11.70;99.90
15615;DHT22;7907;51.368;6.730;2023-03-24T07:26:56;11.80;99.90
15615;DHT22;7907;51.368;6.730;2023-03-24T07:29:25;11.80;99.90
15615;DHT22;7907;51.368;6.730;2023-03-24T07:32:02;11.90;99.90
15615;DHT22;7907;51.368;6.730;2023-03-24T07:34:32;11.90;99.90
15615;DHT22;7907;51.368;6.730;2023-03-24T07:37:08;12.00;99.90
15615;DHT22;7907;51.368;6.730;2023-03-24T07:39:38;12.00;99.90
15615;DHT22;7907;51.368;6.730;2023-03-24T07:42:07;12.00;99.90
15615;DHT22;7907;51.368;6.730;2023-03-24T07:44:39;12.10;99.90
15615;DHT22;7907;51.368;6.730;2023-03-24T07:47:11;12.20;99.90
15615;DHT22;7907;51.368;6.730;2023-03-24T07:49:39;12.10;99.90
15615;DHT22;7907;51.368;6.730;2023-03-24T07:52:07;12.20;99.90
15615;DHT22;7907;51.368;6.730;2023-03-24T07:54:35;12.20;99.90
15615;DHT22;7907;51.368;6.730;2023-03-24T07:57:04;12.30;99.90
15615;DHT22;7907;51.368;6.730;2023-03-24T07:59:32;12.30;99.90
15615;DHT22;7907;51.368;6.730;2023-03-24T08:02:01;12.40;99.90
15615;DHT22;7907;51.368;6.730;2023-03-24T08:04:32;12.50;99.90
15615;DHT22;7907;51.368;6.730;2023-03-24T08:06:59;12.60;99.90
15615;DHT22;7907;51.368;6.730;2023-03-24T08:09:29;12.60;99.90
15615;DHT22;7907;51.368;6.730;2023-03-24T08:11:57;12.70;99.90
15615;DHT22;7907;51.368;6.730;2023-03-24T08:14:24;12.80;99.90
15615;DHT22;7907;51.368;6.730;2023-03-24T08:16:54;12.80;99.90
15615;DHT22;7907;51.368;6.730;2023-03-24T08:19:21;12.90;99.90
15615;DHT22;7907;51.368;6.730;2023-03-24T08:21:55;12.90;99.90
15615;DHT22;7907;51.368;6.730;2023-03-24T08:24:24;12.80;99.90
15615;DHT22;7907;51.368;6.730;2023-03-24T08:26:56;12.80;99.90
15615;DHT22;7907;51.368;6.730;2023-03-24T08:29:27;12.80;99.90
15615;DHT22;7907;51.368;6.730;2023-03-24T08:32:00;12.80;99.90
15615;DHT22;7907;51.368;6.730;2023-03-24T08:34:46;12.70;99.90
15615;DHT22;7907;51.368;6.730;2023-03-24T08:37:20;12.70;99.90
15615;DHT22;7907;51.368;6.730;2023-03-24T08:40:01;12.70;99.90
15615;DHT22;7907;51.368;6.730;2023-03-24T08:42:30;12.80;99.90
15615;DHT22;7907;51.368;6.730;2023-03-24T08:44:57;12.80;99.90
15615;DHT22;7907;51.368;6.730;2023-03-24T08:47:25;12.80;99.90
15615;DHT22;7907;51.368;6.730;2023-03-24T08:49:54;12.90;99.90
15615;DHT22;7907;51.368;6.730;2023-03-24T08:52:26;12.90;99.90
15615;DHT22;7907;51.368;6.730;2023-03-24T08:54:54;13.00;99.90
15615;DHT22;7907;51.368;6.730;2023-03-24T08:57:21;13.00;99.90
15615;DHT22;7907;51.368;6.730;2023-03-24T08:59:50;13.10;99.90
15615;DHT22;7907;51.368;6.730;2023-03-24T09:02:18;13.20;99.90
15615;DHT22;7907;51.368;6.730;2023-03-24T09:04:47;13.20;99.90
15615;DHT22;7907;51.368;6.730;2023-03-24T09:07:20;13.30;99.90
15615;DHT22;7907;51.368;6.730;2023-03-24T09:09:50;13.50;99.90
15615;DHT22;7907;51.368;6.730;2023-03-24T09:12:20;13.50;99.90
15615;DHT22;7907;51.368;6.730;2023-03-24T09:14:49;13.60;99.90
15615;DHT22;7907;51.368;6.730;2023-03-24T09:17:21;13.70;99.90
15615;DHT22;7907;51.368;6.730;2023-03-24T09:20:00;13.80;99.90
15615;DHT22;7907;51.368;6.730;2023-03-24T09:22:32;13.90;99.90
15615;DHT22;7907;51.368;6.730;2023-03-24T09:25:02;13.90;99.90
15615;DHT22;7907;51.368;6.730;2023-03-24T09:27:30;14.00;99.90
15615;DHT22;7907;51.368;6.730;2023-03-24T09:29:58;14.10;99.90
15615;DHT22;7907;51.368;6.730;2023-03-24T09:32:26;14.20;99.90
15615;DHT22;7907;51.368;6.730;2023-03-24T09:34:54;14.20;99.90
15615;DHT22;7907;51.368;6.730;2023-03-24T09:37:28;14.30;99.90
15615;DHT22;7907;51.368;6.730;2023-03-24T09:39:57;14.30;99.90
15615;DHT22;7907;51.368;6.730;2023-03-24T09:42:33;14.40;99.90
15615;DHT22;7907;51.368;6.730;2023-03-24T09:45:06;14.40;99.90
15615;DHT22;7907;51.368;6.730;2023-03-24T09:47:37;14.40;99.90
15615;DHT22;7907;51.368;6.730;2023-03-24T09:50:17;14.50;99.90
15615;DHT22;7907;51.368;6.730;2023-03-24T09:52:50;14.60;99.90
15615;DHT22;7907;51.368;6.730;2023-03-24T09:55:23;14.50;99.90
15615;DHT22;7907;51.368;6.730;2023-03-24T09:57:56;14.50;99.90
15615;DHT22;7907;51.368;6.730;2023-03-24T10:00:28;14.40;99.90
15615;DHT22;7907;51.368;6.730;2023-03-24T10:02:59;14.40;99.90
15615;DHT22;7907;51.368;6.730;2023-03-24T10:05:34;14.40;99.90
15615;DHT22;7907;51.368;6.730;2023-03-24T10:08:10;14.40;99.90
15615;DHT22;7907;51.368;6.730;2023-03-24T10:10:47;14.40;99.90
15615;DHT22;7907;51.368;6.730;2023-03-24T10:13:20;14.60;99.90
15615;DHT22;7907;51.368;6.730;2023-03-24T10:15:53;14.50;99.90
15615;DHT22;7907;51.368;6.730;2023-03-24T10:18:30;14.70;99.90
15615;DHT22;7907;51.368;6.730;2023-03-24T10:21:04;14.80;99.90
15615;DHT22;7907;51.368;6.730;2023-03-24T10:23:39;14.90;99.90
15615;DHT22;7907;51.368;6.730;2023-03-24T10:26:15;14.90;99.90
15615;DHT22;7907;51.368;6.730;2023-03-24T10:28:55;14.90;99.90
15615;DHT22;7907;51.368;6.730;2023-03-24T10:31:28;15.00;99.90
15615;DHT22;7907;51.368;6.730;2023-03-24T10:33:57;15.20;99.90
15615;DHT22;7907;51.368;6.730;2023-03-24T10:36:26;15.20;99.00
15615;DHT22;7907;51.368;6.730;2023-03-24T10:38:54;15.30;99.30
15615;DHT22;7907;51.368;6.730;2023-03-24T10:41:23;15.40;99.90
15615;DHT22;7907;51.368;6.730;2023-03-24T10:43:55;15.40;99.90
15615;DHT22;7907;51.368;6.730;2023-03-24T10:46:25;15.50;98.70
15615;DHT22;7907;51.368;6.730;2023-03-24T10:49:06;15.40;98.70
15615;DHT22;7907;51.368;6.730;2023-03-24T10:51:35;15.30;97.70
15615;DHT22;7907;51.368;6.730;2023-03-24T10:54:10;15.30;97.50
15615;DHT22;7907;51.368;6.730;2023-03-24T10:56:41;15.20;97.30
15615;DHT22;7907;51.368;6.730;2023-03-24T10:59:26;15.20;96.90
15615;DHT22;7907;51.368;6.730;2023-03-24T11:02:02;15.20;96.60
15615;DHT22;7907;51.368;6.730;2023-03-24T11:04:39;15.20;96.60
15615;DHT22;7907;51.368;6.730;2023-03-24T11:07:14;15.20;97.00
15615;DHT22;7907;51.368;6.730;2023-03-24T11:09:43;15.10;96.90
15615;DHT22;7907;51.368;6.730;2023-03-24T11:12:22;15.10;95.70
15615;DHT22;7907;51.368;6.730;2023-03-24T11:15:12;15.00;96.00
15615;DHT22;7907;51.368;6.730;2023-03-24T11:17:41;15.00;97.90
15615;DHT22;7907;51.368;6.730;2023-03-24T11:20:16;15.10;98.30
15615;DHT22;7907;51.368;6.730;2023-03-24T11:23:00;15.30;98.80
15615;DHT22;7907;51.368;6.730;2023-03-24T11:25:34;15.30;99.40
15615;DHT22;7907;51.368;6.730;2023-03-24T11:28:05;15.40;99.80
15615;DHT22;7907;51.368;6.730;2023-03-24T11:30:47;15.40;98.40
15615;DHT22;7907;51.368;6.730;2023-03-24T11:33:18;15.40;97.70
15615;DHT22;7907;51.368;6.730;2023-03-24T11:35:48;15.50;99.70
15615;DHT22;7907;51.368;6.730;2023-03-24T11:38:16;15.40;98.00
15615;DHT22;7907;51.368;6.730;2023-03-24T11:40:53;15.30;97.50
15615;DHT22;7907;51.368;6.730;2023-03-24T11:43:23;15.30;96.10
15615;DHT22;7907;51.368;6.730;2023-03-24T11:45:58;15.30;96.40
15615;DHT22;7907;51.368;6.730;2023-03-24T11:48:30;15.40;94.80
15615;DHT22;7907;51.368;6.730;2023-03-24T11:51:00;15.40;96.20
15615;DHT22;7907;51.368;6.730;2023-03-24T11:53:33;15.60;97.10
15615;DHT22;7907;51.368;6.730;2023-03-24T11:56:11;15.70;98.00
15615;DHT22;7907;51.368;6.730;2023-03-24T11:58:45;15.80;92.20
15615;DHT22;7907;51.368;6.730;2023-03-24T12:01:27;16.00;91.70
15615;DHT22;7907;51.368;6.730;2023-03-24T12:04:12;16.10;90.40
15615;DHT22;7907;51.368;6.730;2023-03-24T12:06:51;16.20;88.90
15615;DHT22;7907;51.368;6.730;2023-03-24T12:09:23;16.20;86.20
15615;DHT22;7907;51.368;6.730;2023-03-24T12:12:07;16.20;86.40
15615;DHT22;7907;51.368;6.730;2023-03-24T12:14:46;16.50;87.50
15615;DHT22;7907;51.368;6.730;2023-03-24T12:17:22;16.70;85.30
15615;DHT22;7907;51.368;6.730;2023-03-24T12:20:11;16.70;85.20
15615;DHT22;7907;51.368;6.730;2023-03-24T12:22:49;16.90;84.90
15615;DHT22;7907;51.368;6.730;2023-03-24T12:25:50;17.10;84.00
15615;DHT22;7907;51.368;6.730;2023-03-24T12:28:38;17.10;84.00
15615;DHT22;7907;51.368;6.730;2023-03-24T12:31:28;16.80;84.40
15615;DHT22;7907;51.368;6.730;2023-03-24T12:34:14;16.70;85.30
15615;DHT22;7907;51.368;6.730;2023-03-24T12:36:56;16.70;84.80
15615;DHT22;7907;51.368;6.730;2023-03-24T12:39:28;16.90;81.40
15615;DHT22;7907;51.368;6.730;2023-03-24T12:42:06;17.20;79.10
15615;DHT22;7907;51.368;6.730;2023-03-24T12:45:03;17.20;77.00
15615;DHT22;7907;51.368;6.730;2023-03-24T12:48:02;17.00;76.30
15615;DHT22;7907;51.368;6.730;2023-03-24T12:50:46;16.80;76.30
15615;DHT22;7907;51.368;6.730;2023-03-24T12:53:28;16.60;76.90
15615;DHT22;7907;51.368;6.730;2023-03-24T12:56:07;16.50;76.90
15615;DHT22;7907;51.368;6.730;2023-03-24T12:58:41;16.50;78.40
15615;DHT22;7907;51.368;6.730;2023-03-24T13:01:17;16.50;79.20
15615;DHT22;7907;51.368;6.730;2023-03-24T13:03:47;16.40;80.00
15615;DHT22;7907;51.368;6.730;2023-03-24T13:06:21;16.30;81.00
15615;DHT22;7907;51.368;6.730;2023-03-24T13:09:06;16.20;81.10
15615;DHT22;7907;51.368;6.730;2023-03-24T13:11:45;16.10;81.80
15615;DHT22;7907;51.368;6.730;2023-03-24T13:14:18;15.90;87.00
15615;DHT22;7907;51.368;6.730;2023-03-24T13:16:47;15.80;90.00
15615;DHT22;7907;51.368;6.730;2023-03-24T13:19:19;15.70;94.00
15615;DHT22;7907;51.368;6.730;2023-03-24T13:21:53;15.70;99.90
15615;DHT22;7907;51.368;6.730;2023-03-24T13:24:21;15.80;99.90
15615;DHT22;7907;51.368;6.730;2023-03-24T13:26:57;15.70;99.90
15615;DHT22;7907;51.368;6.730;2023-03-24T13:29:37;15.70;99.90
15615;DHT22;7907;51.368;6.730;2023-03-24T13:32:22;15.60;99.00
15615;DHT22;7907;51.368;6.730;2023-03-24T13:35:04;15.50;94.30
15615;DHT22;7907;51.368;6.730;2023-03-24T13:37:46;15.40;93.50
15615;DHT22;7907;51.368;6.730;2023-03-24T13:40:29;15.30;94.50
15615;DHT22;7907;51.368;6.730;2023-03-24T13:43:11;15.30;99.90
15615;DHT22;7907;51.368;6.730;2023-03-24T13:45:42;15.40;99.90
15615;DHT22;7907;51.368;6.730;2023-03-24T13:48:20;16.00;98.90
15615;DHT22;7907;51.368;6.730;2023-03-24T13:50:54;16.50;91.30
15615;DHT22;7907;51.368;6.730;2023-03-24T13:53:44;17.20;89.50
15615;DHT22;7907;51.368;6.730;2023-03-24T13:56:22;17.80;82.00
15615;DHT22;7907;51.368;6.730;2023-03-24T13:59:23;18.50;79.20
15615;DHT22;7907;51.368;6.730;2023-03-24T14:02:19;19.10;74.80
15615;DHT22;7907;51.368;6.730;2023-03-24T14:04:50;19.80;72.40
15615;DHT22;7907;51.368;6.730;2023-03-24T14:07:43;20.00;71.70
15615;DHT22;7907;51.368;6.730;2023-03-24T14:10:46;19.80;70.70
15615;DHT22;7907;51.368;6.730;2023-03-24T14:13:21;19.20;69.80
15615;DHT22;7907;51.368;6.730;2023-03-24T14:15:50;18.10;78.10
15615;DHT22;7907;51.368;6.730;2023-03-24T14:18:40;17.20;83.50
15615;DHT22;7907;51.368;6.730;2023-03-24T14:21:08;17.00;90.80
15615;DHT22;7907;51.368;6.730;2023-03-24T14:23:40;16.90;95.50
15615;DHT22;7907;51.368;6.730;2023-03-24T14:26:14;16.50;96.40
15615;DHT22;7907;51.368;6.730;2023-03-24T14:28:56;16.30;99.90
15615;DHT22;7907;51.368;6.730;2023-03-24T14:31:27;16.00;99.90
15615;DHT22;7907;51.368;6.730;2023-03-24T14:34:01;15.80;99.90
15615;DHT22;7907;51.368;6.730;2023-03-24T14:36:33;15.50;99.90
15615;DHT22;7907;51.368;6.730;2023-03-24T14:39:10;15.30;99.90
15615;DHT22;7907;51.368;6.730;2023-03-24T14:41:41;15.40;99.90
15615;DHT22;7907;51.368;6.730;2023-03-24T14:44:09;15.80;99.90
15615;DHT22;7907;51.368;6.730;2023-03-24T14:46:41;16.60;99.90
15615;DHT22;7907;51.368;6.730;2023-03-24T14:49:19;17.30;99.90
15615;DHT22;7907;51.368;6.730;2023-03-24T14:51:59;18.20;99.90
15615;DHT22;7907;51.368;6.730;2023-03-24T14:54:34;18.90;99.90
15615;DHT22;7907;51.368;6.730;2023-03-24T14:57:21;19.30;95.70
15615;DHT22;7907;51.368;6.730;2023-03-24T14:59:56;19.20;92.00
15615;DHT22;7907;51.368;6.730;2023-03-24T15:02:31;18.90;91.80
15615;DHT22;7907;51.368;6.730;2023-03-24T15:05:19;18.60;93.10
15615;DHT22;7907;51.368;6.730;2023-03-24T15:08:10;18.40;94.00
15615;DHT22;7907;51.368;6.730;2023-03-24T15:10:45;18.30;93.60
15615;DHT22;7907;51.368;6.730;2023-03-24T15:13:32;18.50;94.40
15615;DHT22;7907;51.368;6.730;2023-03-24T15:16:03;18.40;94.70
15615;DHT22;7907;51.368;6.730;2023-03-24T15:18:31;18.30;96.60
15615;DHT22;7907;51.368;6.730;2023-03-24T15:20:59;18.20;96.70
15615;DHT22;7907;51.368;6.730;2023-03-24T15:23:27;18.10;99.90
15615;DHT22;7907;51.368;6.730;2023-03-24T15:25:54;17.90;98.60
15615;DHT22;7907;51.368;6.730;2023-03-24T15:28:24;17.70;99.90
15615;DHT22;7907;51.368;6.730;2023-03-24T15:30:55;17.50;99.70
15615;DHT22;7907;51.368;6.730;2023-03-24T15:33:24;17.30;99.90
15615;DHT22;7907;51.368;6.730;2023-03-24T15:35:58;17.10;99.90
15615;DHT22;7907;51.368;6.730;2023-03-24T15:38:28;16.90;99.90
15615;DHT22;7907;51.368;6.730;2023-03-24T15:40:57;16.70;99.90
15615;DHT22;7907;51.368;6.730;2023-03-24T15:43:27;16.30;99.90
15615;DHT22;7907;51.368;6.730;2023-03-24T15:46:00;15.60;99.90
15615;DHT22;7907;51.368;6.730;2023-03-24T15:48:34;13.80;99.90
15615;DHT22;7907;51.368;6.730;2023-03-24T15:51:04;12.50;99.90
15615;DHT22;7907;51.368;6.730;2023-03-24T15:53:54;11.90;99.90
15615;DHT22;7907;51.368;6.730;2023-03-24T15:56:32;11.40;99.90
15615;DHT22;7907;51.368;6.730;2023-03-24T16:02:50;11.00;99.90
15615;DHT22;7907;51.368;6.730;2023-03-24T16:31:40;13.50;99.90
15615;DHT22;7907;51.368;6.730;2023-03-24T16:34:14;13.80;99.90
15615;DHT22;7907;51.368;6.730;2023-03-24T16:36:43;13.90;99.90
15615;DHT22;7907;51.368;6.730;2023-03-24T16:39:14;14.00;99.90
15615;DHT22;7907;51.368;6.730;2023-03-24T16:41:43;13.60;99.90
15615;DHT22;7907;51.368;6.730;2023-03-24T16:44:11;13.30;99.90
15615;DHT22;7907;51.368;6.730;2023-03-24T16:46:40;13.10;99.90
15615;DHT22;7907;51.368;6.730;2023-03-24T16:49:12;12.80;99.90
15615;DHT22;7907;51.368;6.730;2023-03-24T16:51:53;12.80;99.90
15615;DHT22;7907;51.368;6.730;2023-03-24T16:54:20;12.30;99.90
15615;DHT22;7907;51.368;6.730;2023-03-24T16:56:48;12.20;99.90
15615;DHT22;7907;51.368;6.730;2023-03-24T16:59:15;12.20;99.90
15615;DHT22;7907;51.368;6.730;2023-03-24T17:01:46;12.00;99.90
15615;DHT22;7907;51.368;6.730;2023-03-24T17:04:15;12.00;99.90
15615;DHT22;7907;51.368;6.730;2023-03-24T17:06:45;11.80;99.90
15615;DHT22;7907;51.368;6.730;2023-03-24T17:09:15;11.90;99.90
15615;DHT22;7907;51.368;6.730;2023-03-24T17:11:44;11.60;99.90
15615;DHT22;7907;51.368;6.730;2023-03-24T17:14:17;11.70;99.90
15615;DHT22;7907;51.368;6.730;2023-03-24T17:16:47;11.50;99.90
15615;DHT22;7907;51.368;6.730;2023-03-24T17:19:19;11.60;99.90
15615;DHT22;7907;51.368;6.730;2023-03-24T17:21:48;11.50;99.90
15615;DHT22;7907;51.368;6.730;2023-03-24T17:24:18;11.30;99.90
15615;DHT22;7907;51.368;6.730;2023-03-24T17:26:45;11.30;99.90
15615;DHT22;7907;51.368;6.730;2023-03-24T17:29:13;11.10;99.90